createdAt,value
2018-01-24T00:00:41.298Z,26.70
2018-01-24T00:03:09.013Z,24.70
2018-01-24T00:05:36.545Z,39.40
2018-01-24T00:08:04.218Z,40.87
2018-01-24T00:10:31.809Z,45.67
2018-01-24T00:12:59.350Z,34.23
2018-01-24T00:15:26.937Z,35.10
2018-01-24T00:17:54.592Z,32.50
2018-01-24T00:20:22.301Z,30.00
2018-01-24T00:22:50.042Z,26.30
2018-01-24T00:25:17.598Z,26.87
2018-01-24T00:27:45.194Z,32.17
2018-01-24T00:30:12.773Z,23.27
2018-01-24T00:32:40.461Z,29.20
2018-01-24T00:35:08.098Z,24.40
2018-01-24T00:37:35.642Z,34.77
2018-01-24T00:40:03.407Z,46.87
2018-01-24T00:42:30.960Z,33.80
2018-01-24T00:44:58.635Z,25.53
2018-01-24T00:47:26.362Z,24.35
2018-01-24T00:49:54.173Z,25.52
2018-01-24T00:52:21.769Z,20.37
2018-01-24T00:54:49.306Z,22.93
2018-01-24T00:57:16.867Z,23.10
2018-01-24T00:59:44.448Z,26.12
2018-01-24T01:02:12.032Z,24.35
2018-01-24T01:04:39.618Z,21.62
2018-01-24T01:07:07.170Z,19.58
2018-01-24T01:09:34.762Z,21.60
2018-01-24T01:12:02.322Z,20.53
2018-01-24T01:14:30.052Z,19.00
2018-01-24T01:16:57.634Z,16.93
2018-01-24T01:19:25.191Z,18.15
2018-01-24T01:21:52.802Z,13.05
2018-01-24T01:24:20.358Z,11.73
2018-01-24T01:26:47.906Z,15.32
2018-01-24T01:29:15.578Z,14.10
2018-01-24T01:31:43.340Z,13.38
2018-01-24T01:34:10.890Z,12.63
2018-01-24T01:36:38.445Z,13.65
2018-01-24T01:39:06.188Z,11.70
2018-01-24T01:41:33.790Z,10.05
2018-01-24T01:44:01.434Z,11.23
2018-01-24T01:46:29.026Z,15.27
2018-01-24T01:48:56.581Z,12.82
2018-01-24T01:51:24.173Z,14.00
2018-01-24T01:53:51.814Z,15.38
2018-01-24T01:56:19.382Z,15.13
2018-01-24T01:58:46.983Z,13.35
2018-01-24T02:01:14.578Z,11.20
2018-01-24T02:03:42.140Z,11.07
2018-01-24T02:06:09.826Z,9.43
2018-01-24T02:08:37.540Z,10.77
2018-01-24T02:11:05.259Z,10.98
2018-01-24T02:13:33.078Z,10.93
2018-01-24T02:16:00.795Z,12.48
2018-01-24T02:18:28.442Z,11.50
2018-01-24T02:20:55.986Z,11.52
2018-01-24T02:23:23.572Z,11.45
2018-01-24T02:25:51.230Z,10.77
2018-01-24T02:28:18.786Z,14.98
2018-01-24T02:30:46.406Z,11.65
2018-01-24T02:33:13.946Z,11.77
2018-01-24T02:35:41.507Z,10.73
2018-01-24T02:38:09.122Z,15.40
2018-01-24T02:40:36.682Z,10.38
2018-01-24T02:43:04.242Z,10.70
2018-01-24T02:45:31.795Z,12.15
2018-01-24T02:47:59.526Z,13.07
2018-01-24T02:50:27.347Z,13.75
2018-01-24T02:52:54.895Z,20.55
2018-01-24T02:55:22.450Z,36.90
2018-01-24T02:57:50.038Z,242.13
2018-01-24T03:00:17.723Z,135.15
2018-01-24T03:02:45.433Z,154.17
2018-01-24T03:05:13.039Z,76.78
2018-01-24T03:07:40.638Z,32.50
2018-01-24T03:10:08.388Z,76.60
2018-01-24T03:12:35.978Z,52.75
2018-01-24T03:15:03.537Z,16.15
2018-01-24T03:17:31.095Z,19.37
2018-01-24T03:19:58.662Z,26.62
2018-01-24T03:22:26.477Z,22.85
2018-01-24T03:24:54.199Z,35.55
2018-01-24T03:27:22.013Z,21.42
2018-01-24T03:29:49.558Z,14.55
2018-01-24T03:32:17.276Z,28.17
2018-01-24T03:34:44.814Z,21.80
2018-01-24T03:37:12.483Z,15.48
2018-01-24T03:39:40.034Z,19.35
2018-01-24T03:42:07.646Z,17.58
2018-01-24T03:44:35.210Z,21.85
2018-01-24T03:47:02.956Z,12.55
2018-01-24T03:49:30.603Z,18.30
2018-01-24T03:51:58.158Z,21.05
2018-01-24T03:54:25.710Z,17.77
2018-01-24T03:56:53.323Z,18.90
2018-01-24T03:59:20.864Z,21.35
2018-01-24T04:01:48.562Z,18.92
2018-01-24T04:04:16.119Z,20.80
2018-01-24T04:06:43.666Z,17.50
2018-01-24T04:09:11.226Z,17.85
2018-01-24T04:11:38.770Z,17.20
2018-01-24T04:14:06.551Z,15.25
2018-01-24T04:16:34.170Z,20.02
2018-01-24T04:19:01.772Z,18.95
2018-01-24T04:21:29.330Z,14.68
2018-01-24T04:23:56.878Z,14.77
2018-01-24T04:26:24.474Z,12.02
2018-01-24T04:28:52.026Z,18.67
2018-01-24T04:31:19.683Z,21.30
2018-01-24T04:33:47.399Z,17.35
2018-01-24T04:36:15.117Z,19.70
2018-01-24T04:38:42.774Z,17.33
2018-01-24T04:41:10.550Z,18.90
2018-01-24T04:43:38.107Z,36.42
2018-01-24T04:46:05.661Z,25.60
2018-01-24T04:48:33.211Z,25.08
2018-01-24T04:51:00.836Z,15.43
2018-01-24T04:53:28.604Z,16.40
2018-01-24T04:55:56.320Z,21.33
2018-01-24T04:58:23.921Z,23.65
2018-01-24T05:00:51.506Z,19.67
2018-01-24T05:03:19.308Z,17.30
2018-01-24T05:05:46.850Z,15.85
2018-01-24T05:08:14.441Z,14.27
2018-01-24T05:10:42.022Z,15.63
2018-01-24T05:13:09.786Z,15.20
2018-01-24T05:15:37.425Z,15.10
2018-01-24T05:18:04.974Z,20.48
2018-01-24T05:20:36.346Z,29.63
2018-01-24T05:23:04.076Z,19.27
2018-01-24T05:25:31.618Z,24.95
2018-01-24T05:27:59.214Z,20.85
2018-01-24T05:30:26.922Z,34.47
2018-01-24T05:32:54.474Z,30.67
2018-01-24T05:35:22.050Z,37.53
2018-01-24T05:37:49.602Z,26.95
2018-01-24T05:40:17.322Z,25.25
2018-01-24T05:42:44.870Z,32.33
2018-01-24T05:45:12.410Z,21.55
2018-01-24T05:47:40.042Z,15.05
2018-01-24T05:50:07.596Z,26.10
2018-01-24T05:52:35.381Z,18.30
2018-01-24T05:55:02.929Z,18.98
2018-01-24T05:57:31.418Z,18.65
2018-01-24T05:59:59.133Z,12.07
2018-01-24T06:02:26.686Z,17.05
2018-01-24T06:04:54.286Z,30.02
2018-01-24T06:07:21.834Z,32.92
2018-01-24T06:09:49.576Z,26.85
2018-01-24T06:12:17.226Z,35.92
2018-01-24T06:14:44.941Z,21.77
2018-01-24T06:17:12.725Z,23.27
2018-01-24T06:19:40.387Z,34.28
2018-01-24T06:22:07.942Z,46.45
2018-01-24T06:24:35.506Z,100.53
2018-01-24T06:27:03.135Z,88.20
2018-01-24T06:29:31.052Z,43.78
2018-01-24T06:31:58.868Z,35.45
2018-01-24T06:34:26.691Z,25.75
2018-01-24T06:36:54.262Z,35.05
2018-01-24T06:39:21.818Z,59.25
2018-01-24T06:41:49.414Z,56.80
2018-01-24T06:44:17.095Z,43.28
2018-01-24T06:46:44.779Z,37.22
2018-01-24T06:49:12.342Z,63.05
2018-01-24T06:51:39.901Z,25.45
2018-01-24T06:54:07.729Z,20.62
2018-01-24T06:56:35.274Z,40.08
2018-01-24T06:59:02.851Z,23.02
2018-01-24T07:01:30.415Z,25.30
2018-01-24T07:03:58.100Z,23.92
2018-01-24T07:06:25.694Z,21.52
2018-01-24T07:08:53.436Z,24.23
2018-01-24T07:11:21.155Z,25.65
2018-01-24T07:14:00.377Z,20.35
2018-01-24T07:16:27.929Z,18.30
2018-01-24T07:18:55.751Z,20.77
2018-01-24T07:21:23.304Z,23.95
2018-01-24T07:23:50.890Z,22.92
2018-01-24T07:26:18.690Z,39.60
2018-01-24T07:28:46.722Z,24.08
2018-01-24T07:31:14.476Z,18.00
2018-01-24T07:33:42.148Z,16.10
2018-01-24T07:36:09.734Z,15.52
2018-01-24T07:38:37.390Z,13.52
2018-01-24T07:41:05.112Z,16.40
2018-01-24T07:43:32.731Z,11.20
2018-01-24T07:46:00.282Z,64.97
2018-01-24T07:48:27.956Z,15.05
2018-01-24T07:50:55.538Z,15.63
2018-01-24T07:53:23.092Z,20.85
2018-01-24T07:55:50.650Z,15.13
2018-01-24T07:58:18.194Z,13.73
2018-01-24T08:00:45.782Z,16.75
2018-01-24T08:03:13.379Z,18.73
2018-01-24T08:05:41.053Z,16.92
2018-01-24T08:08:08.629Z,20.05
2018-01-24T08:10:36.327Z,16.58
2018-01-24T08:13:04.046Z,13.43
2018-01-24T08:15:31.667Z,15.93
2018-01-24T08:17:59.217Z,11.77
2018-01-24T08:20:26.778Z,13.98
2018-01-24T08:22:54.326Z,19.17
2018-01-24T08:25:22.002Z,16.43
2018-01-24T08:27:49.670Z,20.20
2018-01-24T08:30:17.468Z,17.50
2018-01-24T08:32:45.086Z,19.73
2018-01-24T08:35:12.629Z,18.43
2018-01-24T08:37:40.873Z,22.40
2018-01-24T08:40:08.963Z,24.97
2018-01-24T08:42:36.503Z,22.63
2018-01-24T08:45:04.094Z,25.07
2018-01-24T08:47:31.629Z,25.70
2018-01-24T08:49:59.415Z,26.73
2018-01-24T08:52:27.108Z,26.20
2018-01-24T08:54:55.069Z,26.57
2018-01-24T08:57:22.771Z,25.47
2018-01-24T08:59:50.304Z,23.80
2018-01-24T09:02:17.994Z,28.57
2018-01-24T09:04:45.550Z,22.97
2018-01-24T09:07:13.133Z,31.40
2018-01-24T09:09:40.716Z,82.00
2018-01-24T09:12:08.277Z,31.80
2018-01-24T09:14:36.194Z,29.97
2018-01-24T09:17:03.733Z,33.53
2018-01-24T09:19:31.265Z,29.23
2018-01-24T09:21:58.816Z,25.63
2018-01-24T09:24:26.378Z,28.97
2018-01-24T09:26:53.954Z,28.63
2018-01-24T09:29:21.582Z,31.30
2018-01-24T09:31:49.115Z,30.00
2018-01-24T09:34:17.845Z,27.83
2018-01-24T09:36:45.522Z,27.70
2018-01-24T09:39:13.103Z,22.37
2018-01-24T09:41:40.795Z,25.57
2018-01-24T09:44:08.711Z,21.43
2018-01-24T09:46:36.406Z,26.33
2018-01-24T09:49:03.974Z,23.30
2018-01-24T09:51:31.566Z,21.90
2018-01-24T09:53:59.283Z,18.10
2018-01-24T09:56:26.902Z,14.37
2018-01-24T09:58:54.518Z,17.37
2018-01-24T10:01:22.232Z,17.87
2018-01-24T10:03:49.810Z,21.43
2018-01-24T10:06:17.354Z,15.03
2018-01-24T10:08:44.901Z,15.57
2018-01-24T10:11:12.441Z,16.47
2018-01-24T10:13:39.989Z,23.83
2018-01-24T10:16:07.743Z,24.70
2018-01-24T10:18:35.278Z,17.63
2018-01-24T10:21:02.870Z,22.63
2018-01-24T10:23:30.503Z,15.53
2018-01-24T10:25:58.319Z,18.53
2018-01-24T10:28:25.898Z,14.37
2018-01-24T10:30:53.608Z,22.07
2018-01-24T10:33:21.369Z,12.87
2018-01-24T10:35:49.087Z,11.13
2018-01-24T10:38:16.614Z,11.33
2018-01-24T10:40:44.212Z,12.60
2018-01-24T10:43:11.742Z,13.27
2018-01-24T10:45:39.274Z,8.30
2018-01-24T10:48:06.823Z,11.70
2018-01-24T10:50:34.385Z,10.27
2018-01-24T10:53:01.985Z,10.80
2018-01-24T10:55:29.519Z,10.80
2018-01-24T10:57:57.058Z,82.97
2018-01-24T11:00:24.652Z,14.77
2018-01-24T11:02:52.280Z,9.00
2018-01-24T11:05:20.101Z,8.83
2018-01-24T11:07:47.817Z,59.37
2018-01-24T11:10:15.375Z,113.83
2018-01-24T11:12:43.153Z,12.83
2018-01-24T11:15:10.727Z,18.77
2018-01-24T11:17:38.491Z,13.73
2018-01-24T11:20:06.105Z,14.77
2018-01-24T11:22:33.827Z,14.10
2018-01-24T11:25:01.517Z,11.97
2018-01-24T11:27:29.162Z,17.07
2018-01-24T11:29:56.878Z,12.23
2018-01-24T11:32:24.411Z,15.10
2018-01-24T11:34:51.999Z,15.30
2018-01-24T11:37:19.841Z,15.37
2018-01-24T11:39:47.393Z,14.00
2018-01-24T11:42:15.170Z,13.83
2018-01-24T11:44:42.697Z,9.27
2018-01-24T11:47:10.404Z,8.27
2018-01-24T11:49:37.950Z,10.30
2018-01-24T11:52:05.532Z,10.10
2018-01-24T11:54:33.125Z,42.00
2018-01-24T11:57:00.666Z,19.83
2018-01-24T11:59:28.225Z,19.37
2018-01-24T12:01:55.778Z,10.43
2018-01-24T12:04:23.326Z,20.30
2018-01-24T12:06:50.906Z,30.40
2018-01-24T12:09:18.458Z,16.53
2018-01-24T12:11:46.003Z,10.87
2018-01-24T12:14:13.558Z,9.93
2018-01-24T12:16:41.106Z,12.60
2018-01-24T12:19:08.675Z,11.30
2018-01-24T12:21:36.213Z,11.20
2018-01-24T12:24:03.762Z,8.37
2018-01-24T12:26:31.322Z,13.13
2018-01-24T12:28:58.882Z,9.20
2018-01-24T12:31:26.450Z,11.83
2018-01-24T12:33:53.980Z,11.57
2018-01-24T12:36:21.510Z,8.47
2018-01-24T12:38:49.071Z,11.60
2018-01-24T12:41:16.640Z,19.47
2018-01-24T12:43:44.229Z,17.00
2018-01-24T12:46:11.778Z,15.10
2018-01-24T12:48:39.320Z,10.20
2018-01-24T12:51:06.899Z,12.20
2018-01-24T12:53:34.473Z,9.13
2018-01-24T12:56:02.049Z,8.10
2018-01-24T12:58:29.608Z,10.50
2018-01-24T13:00:57.166Z,28.10
2018-01-24T13:03:24.723Z,8.87
2018-01-24T13:05:52.259Z,9.97
2018-01-24T13:08:19.826Z,9.63
2018-01-24T13:10:47.357Z,9.33
2018-01-24T13:13:14.940Z,18.40
2018-01-24T13:15:42.471Z,13.57
2018-01-24T13:18:10.030Z,16.60
2018-01-24T13:20:37.615Z,21.40
2018-01-24T13:23:05.150Z,9.30
2018-01-24T13:25:32.702Z,18.30
2018-01-24T13:28:00.250Z,8.40
2018-01-24T13:30:27.794Z,12.80
2018-01-24T13:32:55.391Z,11.53
2018-01-24T13:35:22.969Z,171.07
2018-01-24T13:37:50.502Z,14.20
2018-01-24T13:40:18.054Z,19.63
2018-01-24T13:42:45.622Z,12.33
2018-01-24T13:45:13.241Z,13.87
2018-01-24T13:47:40.775Z,61.87
2018-01-24T13:50:08.374Z,32.53
2018-01-24T13:52:35.938Z,14.50
2018-01-24T13:55:03.514Z,10.57
2018-01-24T13:57:31.105Z,10.17
2018-01-24T13:59:58.670Z,14.07
2018-01-24T14:02:26.198Z,9.77
2018-01-24T14:04:53.742Z,14.77
2018-01-24T14:07:21.285Z,12.50
2018-01-24T14:09:49.046Z,8.30
2018-01-24T14:12:16.577Z,10.30
2018-01-24T14:14:44.114Z,11.33
2018-01-24T14:17:11.650Z,9.77
2018-01-24T14:19:39.212Z,13.00
2018-01-24T14:22:06.786Z,11.13
2018-01-24T14:24:34.425Z,9.83
2018-01-24T14:27:01.993Z,8.90
2018-01-24T14:29:29.543Z,13.87
2018-01-24T14:31:57.178Z,10.63
2018-01-24T14:34:24.747Z,14.17
2018-01-24T14:36:52.282Z,15.03
2018-01-24T14:39:19.834Z,17.90
2018-01-24T14:41:47.385Z,12.47
2018-01-24T14:44:14.915Z,13.93
2018-01-24T14:46:42.483Z,17.63
2018-01-24T14:49:10.099Z,20.27
2018-01-24T14:51:37.638Z,28.87
2018-01-24T14:54:05.194Z,29.10
2018-01-24T14:56:32.730Z,22.43
2018-01-24T14:59:00.322Z,16.97
2018-01-24T15:01:27.861Z,15.70
2018-01-24T15:03:55.403Z,19.03
2018-01-24T15:06:22.950Z,14.67
2018-01-24T15:08:50.486Z,31.80
2018-01-24T15:11:18.157Z,25.87
2018-01-24T15:13:45.695Z,29.90
2018-01-24T15:16:13.234Z,29.67
2018-01-24T15:18:40.798Z,26.02
2018-01-24T15:21:08.345Z,39.97
2018-01-24T15:23:35.966Z,39.78
2018-01-24T15:26:03.570Z,31.02
2018-01-24T15:28:31.165Z,31.42
2018-01-24T15:30:58.718Z,41.83
2018-01-24T15:33:26.332Z,45.47
2018-01-24T15:35:53.938Z,27.48
2018-01-24T15:38:21.527Z,18.20
2018-01-24T15:40:49.138Z,18.90
2018-01-24T15:43:16.923Z,21.73
2018-01-24T15:45:44.466Z,16.08
2018-01-24T15:48:12.086Z,24.05
2018-01-24T15:50:39.715Z,17.90
2018-01-24T15:53:07.372Z,24.67
2018-01-24T15:55:34.925Z,17.25
2018-01-24T15:58:02.500Z,23.77
2018-01-24T16:00:30.098Z,20.30
2018-01-24T16:02:57.684Z,21.77
2018-01-24T16:05:25.265Z,27.10
2018-01-24T16:07:52.827Z,35.90
2018-01-24T16:10:20.382Z,77.03
2018-01-24T16:12:48.110Z,116.28
2018-01-24T16:15:15.657Z,126.90
2018-01-24T16:17:43.337Z,230.65
2018-01-24T16:20:11.058Z,94.03
2018-01-24T16:22:38.614Z,61.35
2018-01-24T16:25:06.215Z,70.10
2018-01-24T16:27:34.017Z,79.97
2018-01-24T16:30:01.613Z,63.20
2018-01-24T16:32:29.354Z,133.45
2018-01-24T16:34:56.907Z,62.08
2018-01-24T16:37:24.693Z,85.80
2018-01-24T16:39:52.266Z,34.00
2018-01-24T16:42:19.955Z,25.33
2018-01-24T16:44:47.743Z,25.73
2018-01-24T16:47:15.302Z,28.40
2018-01-24T16:49:43.603Z,24.33
2018-01-24T16:52:11.296Z,31.90
2018-01-24T16:54:38.850Z,21.40
2018-01-24T16:57:06.425Z,27.33
2018-01-24T16:59:34.156Z,44.58
2018-01-24T17:02:01.870Z,36.58
2018-01-24T17:04:29.422Z,88.18
2018-01-24T17:06:56.977Z,60.53
2018-01-24T17:09:24.526Z,65.47
2018-01-24T17:11:52.341Z,55.33
2018-01-24T17:14:19.938Z,108.85
2018-01-24T17:16:47.506Z,244.15
2018-01-24T17:19:15.058Z,34.80
2018-01-24T17:21:42.618Z,55.83
2018-01-24T17:24:10.332Z,44.80
2018-01-24T17:26:38.077Z,65.37
2018-01-24T17:29:05.629Z,60.33
2018-01-24T17:31:33.178Z,58.70
2018-01-24T17:34:00.793Z,63.17
2018-01-24T17:36:28.523Z,48.28
2018-01-24T17:38:56.118Z,209.87
2018-01-24T17:41:23.671Z,121.75
2018-01-24T17:43:51.233Z,102.10
2018-01-24T17:46:18.854Z,94.97
2018-01-24T17:48:46.408Z,124.30
2018-01-24T17:51:14.226Z,122.53
2018-01-24T17:53:41.944Z,178.90
2018-01-24T17:56:09.502Z,149.65
2018-01-24T17:58:37.057Z,111.53
2018-01-24T18:01:04.598Z,81.28
2018-01-24T18:03:32.322Z,61.03
2018-01-24T18:05:59.866Z,56.40
2018-01-24T18:08:27.650Z,81.43
2018-01-24T18:10:55.205Z,77.78
2018-01-24T18:13:22.806Z,68.65
2018-01-24T18:15:51.508Z,59.15
2018-01-24T18:18:19.106Z,81.37
2018-01-24T18:20:46.742Z,79.07
2018-01-24T18:23:14.367Z,56.28
2018-01-24T18:25:42.080Z,44.63
2018-01-24T18:28:09.670Z,52.55
2018-01-24T18:30:37.274Z,65.65
2018-01-24T18:33:04.826Z,79.62
2018-01-24T18:35:32.385Z,96.05
2018-01-24T18:37:59.955Z,134.00
2018-01-24T18:40:27.557Z,129.12
2018-01-24T18:42:55.122Z,89.85
2018-01-24T18:45:22.815Z,64.32
2018-01-24T18:47:50.543Z,73.80
2018-01-24T18:50:18.510Z,68.57
2018-01-24T18:52:46.848Z,49.28
2018-01-24T18:55:14.429Z,64.00
2018-01-24T18:57:41.983Z,85.68
2018-01-24T19:00:09.545Z,63.53
2018-01-24T19:02:37.250Z,70.60
2018-01-24T19:05:04.988Z,76.22
2018-01-24T19:07:32.564Z,90.38
2018-01-24T19:10:00.158Z,103.43
2018-01-24T19:12:27.731Z,103.95
2018-01-24T19:14:55.293Z,177.43
2018-01-24T19:17:22.966Z,54.97
2018-01-24T19:19:50.513Z,49.72
2018-01-24T19:22:18.054Z,43.10
2018-01-24T19:24:45.642Z,53.97
2018-01-24T19:27:13.181Z,56.33
2018-01-24T19:29:40.779Z,54.17
2018-01-24T19:32:08.363Z,70.85
2018-01-24T19:34:36.186Z,64.28
2018-01-24T19:37:03.747Z,62.53
2018-01-24T19:39:31.418Z,103.18
2018-01-24T19:41:59.171Z,129.30
2018-01-24T19:44:26.732Z,88.32
2018-01-24T19:46:54.364Z,76.55
2018-01-24T19:49:22.031Z,79.28
2018-01-24T19:51:49.589Z,60.75
2018-01-24T19:54:17.214Z,103.82
2018-01-24T19:56:44.858Z,64.82
2018-01-24T19:59:12.401Z,61.40
2018-01-24T20:01:39.949Z,59.65
2018-01-24T20:04:07.498Z,49.25
2018-01-24T20:06:35.085Z,61.50
2018-01-24T20:09:02.647Z,56.83
2018-01-24T20:11:30.190Z,67.62
2018-01-24T20:13:57.738Z,63.80
2018-01-24T20:16:25.395Z,81.40
2018-01-24T20:18:53.011Z,89.32
2018-01-24T20:21:20.687Z,123.13
2018-01-24T20:23:48.278Z,102.62
2018-01-24T20:26:15.962Z,99.70
2018-01-24T20:28:43.503Z,49.63
2018-01-24T20:31:11.102Z,44.78
2018-01-24T20:33:38.650Z,48.38
2018-01-24T20:36:06.401Z,52.45
2018-01-24T20:38:33.953Z,55.08
2018-01-24T20:41:01.774Z,47.97
2018-01-24T20:43:29.379Z,44.00
2018-01-24T20:45:56.930Z,43.75
2018-01-24T20:48:24.479Z,48.38
2018-01-24T20:50:52.037Z,204.05
2018-01-24T20:53:19.577Z,73.60
2018-01-24T20:55:47.170Z,71.85
2018-01-24T20:58:14.710Z,53.15
2018-01-24T21:00:42.283Z,55.05
2018-01-24T21:03:09.834Z,40.90
2018-01-24T21:05:37.538Z,40.17
2018-01-24T21:08:05.126Z,47.72
2018-01-24T21:10:32.852Z,48.83
2018-01-24T21:13:00.427Z,60.47
2018-01-24T21:15:28.109Z,55.08
2018-01-24T21:17:55.674Z,49.50
2018-01-24T21:20:23.284Z,69.80
2018-01-24T21:22:50.834Z,48.92
2018-01-24T21:25:18.378Z,83.30
2018-01-24T21:27:46.199Z,67.15
2018-01-24T21:30:21.669Z,76.90
2018-01-24T21:33:01.218Z,76.35
2018-01-24T21:35:40.562Z,80.72
2018-01-24T21:38:08.193Z,72.30
2018-01-24T21:40:35.753Z,74.60
2018-01-24T21:43:03.338Z,76.05
2018-01-24T21:45:30.927Z,74.28
2018-01-24T21:47:58.470Z,59.33
2018-01-24T21:50:26.169Z,47.70
2018-01-24T21:52:53.777Z,33.42
2018-01-24T21:55:21.318Z,33.75
2018-01-24T21:57:49.837Z,35.05
2018-01-24T22:00:17.393Z,36.88
2018-01-24T22:02:44.954Z,41.33
2018-01-24T22:05:12.514Z,41.55
2018-01-24T22:07:40.066Z,61.28
2018-01-24T22:10:07.611Z,88.43
2018-01-24T22:12:35.162Z,52.25
2018-01-24T22:15:02.721Z,46.63
2018-01-24T22:17:30.270Z,46.72
2018-01-24T22:19:57.830Z,43.55
2018-01-24T22:22:25.555Z,37.47
2018-01-24T22:24:53.114Z,32.67
2018-01-24T22:27:20.812Z,34.47
2018-01-24T22:29:48.366Z,35.22
2018-01-24T22:32:15.987Z,31.25
2018-01-24T22:34:43.526Z,33.40
2018-01-24T22:37:11.310Z,27.20
2018-01-24T22:39:38.889Z,26.90
2018-01-24T22:42:06.544Z,25.98
2018-01-24T22:44:34.130Z,28.90
2018-01-24T22:47:01.670Z,26.98
2018-01-24T22:49:29.210Z,23.00
2018-01-24T22:51:56.752Z,22.45
2018-01-24T22:54:24.304Z,26.58
2018-01-24T22:56:52.050Z,36.33
2018-01-24T22:59:19.626Z,23.50
2018-01-24T23:01:47.386Z,23.35
2018-01-24T23:04:15.201Z,22.35
2018-01-24T23:06:42.750Z,20.25
2018-01-24T23:09:10.285Z,27.00
2018-01-24T23:11:37.962Z,21.00
2018-01-24T23:14:05.619Z,20.30
2018-01-24T23:16:33.165Z,20.25
2018-01-24T23:19:00.761Z,20.92
2018-01-24T23:21:28.322Z,21.08
2018-01-24T23:23:55.934Z,17.52
2018-01-24T23:26:23.514Z,19.62
2018-01-24T23:28:51.206Z,21.98
2018-01-24T23:31:18.746Z,16.42
2018-01-24T23:33:46.281Z,22.02
2018-01-24T23:36:14.012Z,32.40
2018-01-24T23:38:41.558Z,22.30
2018-01-24T23:41:09.110Z,27.95
2018-01-24T23:43:36.661Z,27.83
2018-01-24T23:46:04.305Z,22.08
2018-01-24T23:48:32.023Z,31.67
2018-01-24T23:50:59.640Z,30.00
2018-01-24T23:53:27.174Z,23.23
2018-01-24T23:55:54.977Z,24.25
2018-01-24T23:58:22.529Z,29.63
